Hlavní strana
METAR-TAF:

METAR-TAF

Letiště :

Verona, Itálie

zeměpisná šířka: 45-23N, zeměpisná délka: 010-52E, výška: 67 m

Aktuální stav počasí

Zpráva byla vytvořena před 20 minutami, v 21:20 UTC
Severozápadní vítr 4 kt
Teplota 15°C
Vlhkost vzduchu 100%
Tlak 1022 hPa
Viditelnost: 4000 m
kouřmo

METAR: LIPX 222120Z 31004KT 4000 BR NSC 15/15 Q1022

Čas: 23:40 (21:40 UTC)

Předpověď počasí

Zpráva byla vytvořena před 1 hodinou a 40 minutami, v 20:00 UTC
Předpověď platná od 22 v 21 UTC do 23 v 06 UTC
vítr z různých směrů 5 kt
Viditelnost: 4000 m
kouřmo

TAF: LIPX 222000Z 2221/2306 VRB05KT 4000 BR NSC

Stav a předpovědi počasí z více než 4 000 letišť (zprávy METAR a TAF).

Červené a žluté tečky na mapě představují dostupné meteorologické stanice.

Když kurzor umístíte na tečku, zobrazí se název stanice.

Pak kliknutím zobrazíte stav a předpověď počasí.

Chcete-li změnit mapu, kliknutím na zelené tlačítko se znaménkem +mapu přiblížíte, kliknutím na zelené tlačítko se znaménkem – mapu oddálíte a kliknutím na zelené šipky přejdete na sousední mapy.


METAR-TAF: